Time;durP1;ratioP1;P1;durP2;ratioP2;P2;SDS_P1;SDS_P2;PMS_P1;PMS_P2;Temp;Humidity;BMP_temperature;BMP_pressure;BME280_temperature;BME280_humidity;BME280_pressure;Samples;Min_cycle;Max_cycle;Signal;HPM_P1;HPM_P2
2023/01/19 00:01:15;;;;;;;8.40;1.30;;;5.20;99.90;;;;;;5101277;28;20280;-80
2023/01/19 00:03:42;;;;;;;8.27;1.43;;;5.20;99.90;;;;;;5101782;28;20244;-80
2023/01/19 00:06:09;;;;;;;6.80;1.30;;;5.20;99.90;;;;;;5094065;28;20206;-84
2023/01/19 00:08:38;;;;;;;8.13;1.37;;;5.20;99.90;;;;;;5085301;28;20184;-79
2023/01/19 00:11:05;;;;;;;7.90;1.80;;;5.20;99.90;;;;;;5086067;28;20201;-82
2023/01/19 00:13:33;;;;;;;6.37;2.07;;;5.20;99.90;;;;;;5085994;28;20212;-81
2023/01/19 00:16:00;;;;;;;6.53;1.10;;;5.30;99.90;;;;;;5085237;28;20319;-79
2023/01/19 00:18:27;;;;;;;17.83;3.37;;;5.30;99.90;;;;;;5085631;28;20575;-80
2023/01/19 00:20:53;;;;;;;7.17;1.37;;;5.20;99.90;;;;;;5085454;28;20209;-78
2023/01/19 00:23:20;;;;;;;10.70;1.50;;;5.20;99.90;;;;;;5085304;28;20212;-79
2023/01/19 00:25:50;;;;;;;11.20;1.77;;;5.20;99.90;;;;;;5085607;28;20200;-80
2023/01/19 00:28:19;;;;;;;8.17;1.67;;;5.30;99.90;;;;;;5098339;28;20294;-80
2023/01/19 00:30:46;;;;;;;6.83;2.23;;;5.30;99.90;;;;;;5099901;28;20232;-88
2023/01/19 00:33:14;;;;;;;8.30;1.50;;;5.40;99.90;;;;;;5096262;28;20300;-86
2023/01/19 00:35:42;;;;;;;11.13;2.27;;;5.40;99.90;;;;;;5096151;28;20769;-87
2023/01/19 00:38:10;;;;;;;9.20;2.20;;;5.50;99.90;;;;;;5096044;28;20207;-85
2023/01/19 00:40:37;;;;;;;13.43;2.90;;;5.50;99.90;;;;;;5093522;28;20207;-88
2023/01/19 00:43:05;;;;;;;9.23;1.97;;;5.50;99.90;;;;;;5092231;28;20757;-87
2023/01/19 00:45:33;;;;;;;15.00;2.43;;;5.60;99.90;;;;;;5095786;28;20285;-86
2023/01/19 00:48:00;;;;;;;10.77;2.00;;;5.60;99.90;;;;;;5095744;28;20212;-87
2023/01/19 00:50:29;;;;;;;6.83;1.87;;;5.60;99.90;;;;;;5094474;28;20675;-89
2023/01/19 00:52:59;;;;;;;11.90;2.27;;;5.60;99.90;;;;;;5095472;28;20653;-88
2023/01/19 00:55:27;;;;;;;12.00;2.90;;;5.60;99.90;;;;;;5095365;28;20200;-87
2023/01/19 00:57:54;;;;;;;12.60;2.17;;;5.60;99.90;;;;;;5102065;28;20223;-86
2023/01/19 01:00:23;;;;;;;12.70;2.53;;;5.50;99.90;;;;;;5115006;28;20299;-91
2023/01/19 01:02:52;;;;;;;14.30;2.50;;;5.40;99.90;;;;;;5109534;28;20240;-89
2023/01/19 01:05:20;;;;;;;6.87;1.80;;;5.30;99.90;;;;;;5092382;28;20220;-88
2023/01/19 01:07:48;;;;;;;13.70;2.27;;;5.30;99.90;;;;;;5091753;28;20254;-90
2023/01/19 01:10:17;;;;;;;11.40;1.87;;;5.20;99.90;;;;;;5092291;28;20192;-90
2023/01/19 01:12:45;;;;;;;10.93;2.13;;;5.20;99.90;;;;;;5092210;28;20223;-88
2023/01/19 01:15:12;;;;;;;11.83;2.23;;;5.20;99.90;;;;;;5094835;28;20209;-89
2023/01/19 01:17:46;;;;;;;12.00;2.60;;;5.20;99.90;;;;;;5095039;28;20292;-88
2023/01/19 01:20:17;;;;;;;7.60;1.77;;;5.20;99.90;;;;;;5093419;28;20193;-86
2023/01/19 01:22:45;;;;;;;9.10;2.10;;;5.30;99.90;;;;;;5093683;28;20620;-92
2023/01/19 01:25:13;;;;;;;7.73;1.80;;;5.30;99.90;;;;;;5095284;28;20219;-88
2023/01/19 01:27:41;;;;;;;11.97;1.83;;;5.20;99.90;;;;;;5093373;28;20594;-91
2023/01/19 01:30:10;;;;;;;7.73;1.57;;;5.20;99.90;;;;;;5091391;28;20284;-87
2023/01/19 01:32:37;;;;;;;9.97;2.23;;;5.20;99.90;;;;;;5091319;28;20307;-90
2023/01/19 01:35:08;;;;;;;10.80;2.33;;;5.20;99.90;;;;;;5091469;28;20219;-89
2023/01/19 01:37:35;;;;;;;8.30;1.90;;;5.20;99.90;;;;;;5090358;28;20228;-82
2023/01/19 01:40:03;;;;;;;8.33;1.60;;;5.20;99.90;;;;;;5090394;28;20212;-86
2023/01/19 01:42:31;;;;;;;7.40;1.50;;;5.10;99.90;;;;;;5091236;28;20280;-86
2023/01/19 01:44:59;;;;;;;9.77;1.63;;;5.00;99.90;;;;;;5091131;28;20269;-86
2023/01/19 01:47:31;;;;;;;6.70;1.47;;;4.90;99.90;;;;;;5089932;28;20204;-83
2023/01/19 01:50:08;;;;;;;7.57;1.27;;;4.90;99.90;;;;;;5090923;28;20196;-87
2023/01/19 01:52:40;;;;;;;5.43;1.53;;;4.80;99.90;;;;;;5099291;28;20457;-87
2023/01/19 01:55:09;;;;;;;13.30;2.60;;;4.70;99.90;;;;;;5090812;28;20246;-87
2023/01/19 01:57:41;;;;;;;10.50;2.20;;;4.70;99.90;;;;;;5090613;28;20258;-82
2023/01/19 02:00:12;;;;;;;9.40;1.87;;;4.60;99.90;;;;;;5088917;28;20231;-88
2023/01/19 02:02:50;;;;;;;10.67;1.93;;;4.50;99.90;;;;;;5086689;28;20615;-87
2023/01/19 02:05:22;;;;;;;12.80;1.83;;;4.40;99.90;;;;;;5090439;28;20199;-89
2023/01/19 02:13:25;;;;;;;13.70;2.47;;;4.40;99.90;;;;;;5091227;28;20257;-90
2023/01/19 02:15:54;;;;;;;10.80;2.70;;;4.50;99.90;;;;;;5099911;28;20669;-90
2023/01/19 02:18:22;;;;;;;14.17;3.03;;;4.50;99.90;;;;;;5112037;28;20311;-90
2023/01/19 02:20:57;;;;;;;13.73;3.93;;;4.50;99.90;;;;;;5104478;28;20200;-89
2023/01/19 02:23:40;;;;;;;20.37;3.23;;;4.50;99.90;;;;;;5090810;28;20584;-90
2023/01/19 02:26:09;;;;;;;14.33;3.67;;;4.50;99.90;;;;;;5090964;28;20896;-88
2023/01/19 02:28:40;;;;;;;27.80;4.93;;;4.50;99.90;;;;;;5090702;28;20804;-89
2023/01/19 02:31:07;;;;;;;17.90;3.20;;;4.60;99.90;;;;;;5090694;28;20236;-90
2023/01/19 02:33:34;;;;;;;19.00;3.60;;;4.60;99.90;;;;;;5091329;28;20252;-82
2023/01/19 02:36:02;;;;;;;12.43;3.00;;;4.60;99.90;;;;;;5091136;28;20287;-90
2023/01/19 02:38:30;;;;;;;17.30;3.40;;;4.60;99.90;;;;;;5091166;28;20581;-89
2023/01/19 02:41:01;;;;;;;17.37;3.87;;;4.60;99.90;;;;;;5091790;28;20209;-89
2023/01/19 02:43:29;;;;;;;20.37;3.87;;;4.60;99.90;;;;;;5091202;28;20185;-90
2023/01/19 02:45:56;;;;;;;28.73;4.53;;;4.70;99.90;;;;;;5090957;28;20327;-86
2023/01/19 02:48:23;;;;;;;20.37;3.40;;;4.90;99.90;;;;;;5091132;28;20224;-90
2023/01/19 02:50:53;;;;;;;26.47;4.63;;;5.10;99.90;;;;;;5090258;28;20561;-91
2023/01/19 02:53:44;;;;;;;26.13;4.60;;;5.20;99.90;;;;;;5090843;28;20221;-88
2023/01/19 02:56:29;;;;;;;18.93;4.23;;;5.30;99.90;;;;;;5090148;28;20618;-86
2023/01/19 02:59:01;;;;;;;15.70;3.90;;;5.50;99.90;;;;;;5088662;28;20204;-89
2023/01/19 03:01:40;;;;;;;20.23;3.90;;;5.60;99.90;;;;;;5085817;28;20209;-90
2023/01/19 03:04:19;;;;;;;23.67;3.73;;;5.70;99.90;;;;;;5086002;28;20201;-89
2023/01/19 03:06:50;;;;;;;16.67;3.53;;;5.70;99.90;;;;;;5090530;28;20181;-90
2023/01/19 03:09:29;;;;;;;15.20;3.53;;;5.90;99.90;;;;;;5087659;28;20287;-91
2023/01/19 03:12:09;;;;;;;14.93;3.70;;;5.90;99.90;;;;;;5103148;28;20856;-88
2023/01/19 03:14:41;;;;;;;17.40;3.50;;;6.00;99.90;;;;;;5110165;28;20307;-84
2023/01/19 03:17:11;;;;;;;16.43;3.30;;;6.10;99.90;;;;;;5110724;28;20210;-87
2023/01/19 03:19:41;;;;;;;22.30;4.87;;;6.10;99.90;;;;;;5100932;28;20291;-88
2023/01/19 03:22:12;;;;;;;15.77;4.07;;;6.20;99.90;;;;;;5088758;28;20204;-90
2023/01/19 03:24:42;;;;;;;19.63;3.47;;;6.20;99.90;;;;;;5090539;28;20212;-89
2023/01/19 03:27:14;;;;;;;20.33;3.17;;;6.30;99.90;;;;;;5088171;28;20316;-80
2023/01/19 03:29:43;;;;;;;12.70;2.83;;;6.40;99.90;;;;;;5090430;28;20235;-91
2023/01/19 03:32:15;;;;;;;16.80;4.60;;;6.40;99.90;;;;;;5086184;28;20240;-87
2023/01/19 03:34:44;;;;;;;12.97;3.00;;;6.40;99.90;;;;;;5087312;28;20688;-89
2023/01/19 03:37:14;;;;;;;20.67;3.37;;;6.40;99.90;;;;;;5090684;28;20683;-89
2023/01/19 03:39:42;;;;;;;8.93;2.93;;;6.50;99.90;;;;;;5089943;28;20311;-90
2023/01/19 03:42:14;;;;;;;17.50;3.07;;;6.50;99.90;;;;;;5091807;28;20245;-86
2023/01/19 03:44:43;;;;;;;13.20;3.00;;;6.50;99.90;;;;;;5093644;28;20208;-87
2023/01/19 03:47:11;;;;;;;15.37;3.23;;;6.50;99.90;;;;;;5094313;28;20611;-87
2023/01/19 03:49:41;;;;;;;19.83;2.87;;;6.50;99.90;;;;;;5094047;28;20216;-86
2023/01/19 03:52:08;;;;;;;14.00;2.80;;;6.50;99.90;;;;;;5091729;28;20205;-86
2023/01/19 03:54:36;;;;;;;11.93;2.70;;;6.50;99.90;;;;;;5090206;28;20208;-80
2023/01/19 03:57:03;;;;;;;15.07;4.10;;;6.50;99.90;;;;;;5091920;28;20290;-90
2023/01/19 03:59:31;;;;;;;18.87;5.27;;;6.50;99.90;;;;;;5093758;28;20288;-82
2023/01/19 04:01:58;;;;;;;14.73;3.00;;;6.40;99.90;;;;;;5092810;28;20577;-86
2023/01/19 04:04:25;;;;;;;16.37;4.07;;;6.50;99.90;;;;;;5093814;28;20220;-90
2023/01/19 04:06:52;;;;;;;22.27;4.53;;;6.50;99.90;;;;;;5093703;28;20232;-91
2023/01/19 04:09:19;;;;;;;11.43;2.47;;;6.50;99.90;;;;;;5093640;28;20272;-89
2023/01/19 04:11:46;;;;;;;14.43;2.50;;;6.50;99.90;;;;;;5097163;28;20218;-90
2023/01/19 04:14:12;;;;;;;14.60;3.27;;;6.40;99.90;;;;;;5112797;28;20653;-88
2023/01/19 04:16:41;;;;;;;17.77;4.13;;;6.40;99.90;;;;;;5113695;28;20307;-89
2023/01/19 04:19:08;;;;;;;17.67;2.80;;;6.30;99.90;;;;;;5113985;28;20234;-91
2023/01/19 04:21:35;;;;;;;12.43;2.40;;;6.30;99.90;;;;;;5110143;28;20311;-88
2023/01/19 04:24:02;;;;;;;11.87;2.20;;;6.30;99.90;;;;;;5090538;28;20203;-86
2023/01/19 04:26:29;;;;;;;11.17;3.07;;;6.20;99.90;;;;;;5087277;28;20651;-82
2023/01/19 04:28:56;;;;;;;8.30;1.90;;;6.20;99.90;;;;;;5086296;28;20228;-88
2023/01/19 04:31:23;;;;;;;11.20;2.53;;;6.10;99.90;;;;;;5087019;28;20238;-78
2023/01/19 04:33:51;;;;;;;16.20;3.07;;;6.00;99.90;;;;;;5086444;28;20228;-80
2023/01/19 04:36:18;;;;;;;15.87;2.47;;;6.00;99.90;;;;;;5086323;28;20303;-78
2023/01/19 04:38:45;;;;;;;10.73;2.60;;;6.00;99.90;;;;;;5087107;28;20215;-85
2023/01/19 04:41:12;;;;;;;14.67;2.60;;;6.00;99.90;;;;;;5086169;28;20207;-84
2023/01/19 04:43:39;;;;;;;16.43;3.00;;;6.10;99.90;;;;;;5087164;28;20270;-82
2023/01/19 04:46:06;;;;;;;26.47;3.77;;;6.20;99.90;;;;;;5087184;28;20776;-81
2023/01/19 04:48:33;;;;;;;13.90;2.80;;;6.20;99.90;;;;;;5087389;28;20207;-83
2023/01/19 04:51:01;;;;;;;11.07;2.63;;;6.20;99.90;;;;;;5086556;28;20201;-80
2023/01/19 04:53:28;;;;;;;18.97;2.90;;;6.20;99.90;;;;;;5087337;28;20328;-80
2023/01/19 04:55:55;;;;;;;13.13;3.13;;;6.20;99.90;;;;;;5085196;28;20236;-87
2023/01/19 04:58:23;;;;;;;13.97;3.53;;;6.20;99.90;;;;;;5083145;28;20200;-85
2023/01/19 05:00:51;;;;;;;16.03;3.30;;;6.30;99.90;;;;;;5084988;28;20200;-77
2023/01/19 05:03:18;;;;;;;16.80;2.47;;;6.30;99.90;;;;;;5085346;28;20204;-78
2023/01/19 05:05:45;;;;;;;14.67;4.53;;;6.30;99.90;;;;;;5084870;28;20197;-78
2023/01/19 05:08:13;;;;;;;21.10;2.90;;;6.30;99.90;;;;;;5084641;28;20208;-78
2023/01/19 05:10:40;;;;;;;11.33;2.63;;;6.30;99.90;;;;;;5085006;28;20193;-86
2023/01/19 05:13:07;;;;;;;9.63;2.40;;;6.30;99.90;;;;;;5104797;28;20223;-80
2023/01/19 05:15:34;;;;;;;16.23;2.60;;;6.30;99.90;;;;;;5099981;28;20209;-79
2023/01/19 05:18:01;;;;;;;14.77;3.70;;;6.30;99.90;;;;;;5088036;28;20199;-84
2023/01/19 05:20:28;;;;;;;16.20;3.93;;;6.30;99.90;;;;;;5090180;28;20204;-79
2023/01/19 05:22:55;;;;;;;11.97;3.00;;;6.20;99.90;;;;;;5105496;28;20192;-78
2023/01/19 05:25:23;;;;;;;14.40;3.57;;;6.20;99.90;;;;;;5102847;28;20207;-78
2023/01/19 05:27:50;;;;;;;16.73;3.40;;;6.20;99.90;;;;;;5084721;28;20208;-77
2023/01/19 05:30:18;;;;;;;11.33;2.43;;;6.20;99.90;;;;;;5084269;28;20233;-77
2023/01/19 05:32:45;;;;;;;12.53;2.70;;;6.10;99.90;;;;;;5083317;28;20193;-76
2023/01/19 05:35:13;;;;;;;9.53;2.43;;;6.10;99.90;;;;;;5084502;28;20200;-78
2023/01/19 05:37:40;;;;;;;13.00;2.67;;;6.10;94.00;;;;;;5083955;28;20224;-77
2023/01/19 05:40:08;;;;;;;8.27;1.90;;;6.10;83.30;;;;;;5083963;28;20197;-77
2023/01/19 05:42:36;;;;;;;10.97;2.90;;;6.10;90.30;;;;;;5084745;28;20592;-79
2023/01/19 05:45:04;;;;;;;15.57;3.07;;;6.10;53.80;;;;;;5085135;28;20513;-82
2023/01/19 05:47:31;;;;;;;9.70;2.43;;;6.10;41.90;;;;;;5083649;28;20512;-78
2023/01/19 05:49:58;;;;;;;10.27;3.00;;;6.10;37.50;;;;;;5084314;28;20192;-78
2023/01/19 05:52:25;;;;;;;10.10;2.53;;;6.10;19.80;;;;;;5083611;28;20212;-78
2023/01/19 05:54:53;;;;;;;14.70;2.43;;;6.10;30.30;;;;;;5083599;28;20313;-78
2023/01/19 05:57:20;;;;;;;13.27;3.00;;;6.20;59.60;;;;;;5082527;28;20208;-79
2023/01/19 05:59:49;;;;;;;13.17;2.50;;;6.20;78.90;;;;;;5082762;28;20207;-78
2023/01/19 06:02:16;;;;;;;17.37;2.67;;;6.20;92.00;;;;;;5083372;28;20213;-78
2023/01/19 06:04:43;;;;;;;8.97;2.73;;;6.10;91.00;;;;;;5082779;28;20661;-79
2023/01/19 06:07:10;;;;;;;12.13;2.40;;;6.10;77.70;;;;;;5082769;28;20197;-83
2023/01/19 06:09:37;;;;;;;13.13;2.40;;;6.10;93.20;;;;;;5093045;28;20203;-78
2023/01/19 06:12:04;;;;;;;11.33;2.70;;;6.00;99.90;;;;;;5105118;28;20283;-79
2023/01/19 06:14:31;;;;;;;11.07;2.53;;;6.00;99.90;;;;;;5103282;28;20227;-84
2023/01/19 06:16:59;;;;;;;16.90;2.80;;;5.90;99.90;;;;;;5100118;28;20310;-83
2023/01/19 06:19:26;;;;;;;12.07;2.10;;;5.90;99.90;;;;;;5084577;28;20486;-79
2023/01/19 06:21:53;;;;;;;10.57;2.77;;;5.90;76.70;;;;;;5083427;28;20283;-79
2023/01/19 06:24:20;;;;;;;10.07;3.03;;;6.00;99.90;;;;;;5083840;28;20203;-79
2023/01/19 06:26:47;;;;;;;19.73;3.53;;;6.00;99.90;;;;;;5085564;28;20235;-80
2023/01/19 06:29:14;;;;;;;11.70;2.53;;;6.00;98.00;;;;;;5083004;28;20262;-79
2023/01/19 06:31:41;;;;;;;14.43;2.83;;;6.00;81.00;;;;;;5082518;28;20247;-81
2023/01/19 06:34:10;;;;;;;8.03;2.33;;;6.00;77.10;;;;;;5085298;28;20237;-89
2023/01/19 06:36:37;;;;;;;15.00;3.50;;;6.00;80.20;;;;;;5082043;28;20207;-80
2023/01/19 06:39:04;;;;;;;12.80;2.93;;;6.00;39.40;;;;;;5089867;28;20220;-88
2023/01/19 06:41:32;;;;;;;13.03;2.03;;;6.00;22.90;;;;;;5090105;28;20639;-89
2023/01/19 06:43:59;;;;;;;11.80;2.50;;;5.90;1.80;;;;;;5090083;28;20682;-88
2023/01/19 06:46:26;;;;;;;10.43;2.40;;;5.90;1.00;;;;;;5090020;28;20952;-89
2023/01/19 06:48:53;;;;;;;11.60;2.83;;;5.90;1.00;;;;;;5089735;28;20196;-88
2023/01/19 06:51:22;;;;;;;13.10;2.67;;;5.90;1.00;;;;;;5090849;28;20197;-86
2023/01/19 06:53:50;;;;;;;8.87;2.47;;;5.90;1.00;;;;;;5090399;28;20220;-87
2023/01/19 06:56:17;;;;;;;10.00;2.67;;;5.90;1.00;;;;;;5089844;28;20331;-88
2023/01/19 06:58:44;;;;;;;7.60;1.97;;;5.90;1.00;;;;;;5090044;28;20204;-85
2023/01/19 07:01:11;;;;;;;13.93;4.70;;;5.90;1.00;;;;;;5090446;28;20865;-86
2023/01/19 07:03:38;;;;;;;5.43;1.80;;;5.90;1.00;;;;;;5089092;28;20296;-87
2023/01/19 07:06:06;;;;;;;10.70;2.20;;;5.80;1.00;;;;;;5089808;28;20300;-88
2023/01/19 07:08:35;;;;;;;13.67;2.03;;;5.70;1.00;;;;;;5098512;28;20203;-83
2023/01/19 07:11:05;;;;;;;8.93;2.97;;;5.70;1.00;;;;;;5107617;28;20211;-86
2023/01/19 07:13:32;;;;;;;12.00;2.43;;;5.70;1.00;;;;;;5109511;28;20219;-84
2023/01/19 07:15:59;;;;;;;13.07;1.80;;;5.60;1.00;;;;;;5110231;28;20206;-88
2023/01/19 07:18:26;;;;;;;7.07;1.83;;;5.60;1.00;;;;;;5112550;28;20200;-83
2023/01/19 07:20:53;;;;;;;9.67;1.87;;;5.60;1.00;;;;;;5109303;28;20191;-85
2023/01/19 07:23:20;;;;;;;9.17;1.90;;;5.60;1.00;;;;;;5109631;28;20221;-89
2023/01/19 07:25:49;;;;;;;12.37;2.37;;;5.60;1.00;;;;;;5106950;28;20194;-79
2023/01/19 07:28:16;;;;;;;11.57;1.77;;;5.60;1.00;;;;;;5109339;28;20742;-86
2023/01/19 07:30:44;;;;;;;8.43;1.60;;;5.60;1.00;;;;;;5111533;28;20318;-82
2023/01/19 07:33:11;;;;;;;8.17;2.10;;;5.60;1.00;;;;;;5092122;28;20212;-86
2023/01/19 07:35:38;;;;;;;8.90;1.70;;;5.50;1.00;;;;;;5091272;28;20228;-87
2023/01/19 07:38:05;;;;;;;8.70;3.00;;;5.60;1.00;;;;;;5091575;28;20600;-84
2023/01/19 07:40:33;;;;;;;5.23;1.47;;;5.50;1.00;;;;;;5090948;28;20211;-86
2023/01/19 07:43:01;;;;;;;9.00;2.20;;;5.60;1.00;;;;;;5091645;28;20211;-81
2023/01/19 07:45:28;;;;;;;5.93;1.80;;;5.50;1.00;;;;;;5096714;28;20611;-85
2023/01/19 07:47:55;;;;;;;12.03;2.00;;;5.50;1.00;;;;;;5111403;28;20202;-83
2023/01/19 07:50:24;;;;;;;8.47;1.53;;;5.60;8.10;;;;;;5109248;28;20196;-80
2023/01/19 07:52:52;;;;;;;11.03;2.13;;;5.70;99.90;;;;;;5107506;28;20277;-87
2023/01/19 07:55:19;;;;;;;10.60;2.03;;;5.60;99.90;;;;;;5108004;28;20705;-85
2023/01/19 07:57:49;;;;;;;13.40;2.40;;;5.50;99.90;;;;;;5110799;28;20220;-82
2023/01/19 08:00:20;;;;;;;14.90;4.03;;;5.50;99.90;;;;;;5107703;28;20209;-82
2023/01/19 08:02:48;;;;;;;12.30;2.37;;;5.40;99.90;;;;;;5093082;28;20287;-86
2023/01/19 08:05:16;;;;;;;11.10;2.47;;;5.40;99.90;;;;;;5097643;28;20607;-80
2023/01/19 08:07:44;;;;;;;9.30;2.73;;;5.30;99.90;;;;;;5105853;28;20215;-79
2023/01/19 08:10:12;;;;;;;7.10;2.03;;;5.30;99.90;;;;;;5110535;28;20192;-84
2023/01/19 08:12:39;;;;;;;7.60;2.63;;;5.30;92.10;;;;;;5110625;28;20855;-85
2023/01/19 08:15:08;;;;;;;12.50;2.43;;;5.40;96.30;;;;;;5109705;28;20920;-84
2023/01/19 08:17:37;;;;;;;12.33;1.90;;;5.40;99.90;;;;;;5109790;28;20314;-79
2023/01/19 08:20:05;;;;;;;8.50;2.63;;;5.40;99.90;;;;;;5109911;28;20212;-85
2023/01/19 08:22:32;;;;;;;8.57;1.80;;;5.40;99.90;;;;;;5107187;28;20602;-79
2023/01/19 08:24:59;;;;;;;6.23;2.20;;;5.40;99.90;;;;;;5106357;28;20191;-80
2023/01/19 08:27:26;;;;;;;10.50;1.80;;;5.40;99.90;;;;;;5104302;28;20620;-79
2023/01/19 08:29:53;;;;;;;7.60;2.47;;;5.40;99.90;;;;;;5091009;28;20210;-79
2023/01/19 08:32:20;;;;;;;10.13;3.43;;;5.40;99.90;;;;;;5085147;28;20564;-79
2023/01/19 08:34:48;;;;;;;9.63;3.43;;;5.30;99.90;;;;;;5084763;28;20217;-79
2023/01/19 08:37:15;;;;;;;11.30;2.63;;;5.40;73.90;;;;;;5091031;28;20475;-82
2023/01/19 08:39:42;;;;;;;9.77;2.00;;;5.50;1.00;;;;;;5107534;28;20214;-84
2023/01/19 08:42:09;;;;;;;9.20;1.70;;;5.50;1.00;;;;;;5097072;28;20208;-82
2023/01/19 08:44:35;;;;;;;13.13;2.27;;;5.50;1.00;;;;;;5086993;28;20662;-85
2023/01/19 08:47:26;;;;;;;7.97;1.70;;;5.60;1.00;;;;;;5088315;28;20211;-79
2023/01/19 08:49:55;;;;;;;8.10;1.50;;;5.60;1.00;;;;;;5071318;28;20298;-84
2023/01/19 08:52:23;;;;;;;8.13;1.90;;;5.60;1.00;;;;;;5089647;28;20236;-84
2023/01/19 08:54:50;;;;;;;7.03;1.60;;;5.60;1.00;;;;;;5089428;28;20234;-79
2023/01/19 08:57:17;;;;;;;5.83;1.90;;;5.70;1.00;;;;;;5089339;28;20200;-82
2023/01/19 08:59:46;;;;;;;6.27;2.20;;;5.70;1.00;;;;;;5090002;28;20200;-84
2023/01/19 09:02:13;;;;;;;5.87;1.43;;;5.70;1.00;;;;;;5090796;28;20251;-87
2023/01/19 09:04:40;;;;;;;4.20;1.40;;;5.70;1.00;;;;;;5088260;28;20324;-82
2023/01/19 09:07:08;;;;;;;4.43;1.50;;;5.70;1.00;;;;;;5086702;28;20750;-86
2023/01/19 09:09:36;;;;;;;7.20;1.53;;;5.70;1.00;;;;;;5089506;28;20196;-84
2023/01/19 09:12:04;;;;;;;4.37;1.30;;;5.70;1.00;;;;;;5093961;28;20299;-85
2023/01/19 09:14:31;;;;;;;8.50;1.70;;;5.80;1.00;;;;;;5090515;28;20712;-83
2023/01/19 09:16:58;;;;;;;3.83;1.60;;;5.70;1.00;;;;;;5091980;28;20227;-85
2023/01/19 09:19:25;;;;;;;9.03;2.13;;;5.70;1.00;;;;;;5108141;28;20210;-81
2023/01/19 09:21:55;;;;;;;6.07;1.63;;;5.70;1.00;;;;;;5106879;28;20215;-77
2023/01/19 09:24:24;;;;;;;7.93;1.77;;;5.70;1.00;;;;;;5104716;28;20212;-82
2023/01/19 09:26:51;;;;;;;4.33;1.47;;;5.70;1.00;;;;;;5088389;28;20204;-83
2023/01/19 09:29:18;;;;;;;6.00;1.50;;;5.70;1.00;;;;;;5119173;27;20691;-86
2023/01/19 09:31:45;;;;;;;3.30;1.00;;;5.70;1.00;;;;;;5111123;27;20326;-80
2023/01/19 09:34:12;;;;;;;5.00;2.10;;;5.70;1.00;;;;;;5107170;28;20222;-83
2023/01/19 09:36:39;;;;;;;4.27;1.60;;;5.70;1.00;;;;;;5105820;27;20192;-79
2023/01/19 09:39:06;;;;;;;8.33;1.80;;;5.70;1.00;;;;;;5101963;28;20207;-79
2023/01/19 09:41:37;;;;;;;6.10;1.47;;;5.70;1.00;;;;;;5102731;28;20209;-85
2023/01/19 09:44:06;;;;;;;4.33;1.27;;;5.80;99.90;;;;;;5106557;28;20214;-84
2023/01/19 09:46:38;;;;;;;3.30;1.20;;;5.80;1.00;;;;;;5104856;28;20207;-82
2023/01/19 09:49:13;;;;;;;10.70;1.73;;;5.80;58.60;;;;;;5107534;28;20208;-83
2023/01/19 09:51:44;;;;;;;6.60;1.87;;;5.80;99.90;;;;;;5102764;28;20769;-84
2023/01/19 09:54:14;;;;;;;9.90;2.40;;;5.80;1.00;;;;;;5104604;28;20293;-88
2023/01/19 09:56:43;;;;;;;8.13;1.53;;;5.90;1.00;;;;;;5107503;28;20210;-83
2023/01/19 09:59:20;;;;;;;7.33;1.87;;;5.90;1.00;;;;;;5105133;28;20211;-81
2023/01/19 10:02:01;;;;;;;3.93;1.20;;;5.90;1.00;;;;;;5097742;28;20236;-81
2023/01/19 10:04:32;;;;;;;4.67;1.20;;;5.90;1.00;;;;;;5103924;27;20213;-85
2023/01/19 10:07:09;;;;;;;3.83;1.00;;;5.90;1.00;;;;;;5107363;27;20212;-80
2023/01/19 10:09:58;;;;;;;3.33;1.27;;;6.00;99.90;;;;;;5110125;27;20603;-84
2023/01/19 10:12:46;;;;;;;6.30;1.73;;;6.00;1.00;;;;;;5095934;28;20292;-84
2023/01/19 10:15:28;;;;;;;9.20;2.37;;;6.10;1.00;;;;;;5089573;28;20639;-85
2023/01/19 10:18:11;;;;;;;8.83;1.80;;;6.10;1.00;;;;;;5108385;28;20211;-79
2023/01/19 10:20:42;;;;;;;6.67;1.77;;;6.20;1.00;;;;;;5104941;28;20225;-81
2023/01/19 10:23:29;;;;;;;5.37;1.53;;;6.20;1.00;;;;;;5110104;27;20208;-85
2023/01/19 10:25:56;;;;;;;6.60;1.97;;;6.20;99.90;;;;;;5107202;28;20560;-86
2023/01/19 10:28:28;;;;;;;5.00;1.80;;;6.20;99.90;;;;;;5103781;28;20207;-85
2023/01/19 10:30:55;;;;;;;7.80;2.00;;;6.20;99.90;;;;;;5109639;28;20659;-85
2023/01/19 10:33:22;;;;;;;5.43;1.53;;;6.20;99.90;;;;;;5099280;28;20212;-86
2023/01/19 10:35:49;;;;;;;4.97;1.27;;;6.10;99.90;;;;;;5089020;28;20256;-86
2023/01/19 10:38:20;;;;;;;7.40;1.83;;;6.10;99.90;;;;;;5105045;28;20785;-83
2023/01/19 10:40:53;;;;;;;4.20;1.60;;;6.10;99.90;;;;;;5103744;28;20295;-84
2023/01/19 10:43:36;;;;;;;3.40;1.40;;;6.10;99.90;;;;;;5113731;27;20576;-82
2023/01/19 10:46:06;;;;;;;3.30;1.13;;;6.10;99.90;;;;;;5107679;28;20275;-84
2023/01/19 10:48:38;;;;;;;6.77;1.30;;;6.10;99.90;;;;;;5105822;28;20192;-85
2023/01/19 10:51:07;;;;;;;6.43;2.00;;;6.10;1.00;;;;;;5108475;28;20286;-81
2023/01/19 10:53:34;;;;;;;8.10;2.43;;;6.10;23.40;;;;;;5107435;28;20264;-83
2023/01/19 10:56:14;;;;;;;7.07;1.57;;;6.10;99.90;;;;;;5108671;28;20228;-81
2023/01/19 10:58:42;;;;;;;7.90;2.50;;;6.10;1.00;;;;;;5108034;28;20198;-82
2023/01/19 11:01:20;;;;;;;2.77;1.40;;;6.10;1.00;;;;;;5106840;28;20204;-79
2023/01/19 11:03:47;;;;;;;4.20;1.30;;;6.10;99.90;;;;;;5088694;28;20671;-82
2023/01/19 11:06:23;;;;;;;5.43;1.67;;;6.10;1.00;;;;;;5087573;28;20188;-83
2023/01/19 11:08:51;;;;;;;8.03;1.77;;;6.10;1.00;;;;;;5086890;28;20898;-83
2023/01/19 11:11:20;;;;;;;5.80;1.50;;;6.20;1.00;;;;;;5084864;28;20576;-84
2023/01/19 11:14:04;;;;;;;4.93;2.13;;;6.20;96.80;;;;;;5084253;28;20207;-85
2023/01/19 11:16:33;;;;;;;9.70;1.50;;;6.30;1.00;;;;;;5092498;28;20236;-86
2023/01/19 11:19:02;;;;;;;5.97;1.43;;;6.30;1.00;;;;;;5087481;28;20189;-81
2023/01/19 11:21:32;;;;;;;5.37;1.30;;;6.30;1.00;;;;;;5101865;28;20230;-81
2023/01/19 11:24:04;;;;;;;8.73;2.40;;;6.40;1.00;;;;;;5100478;28;20276;-87
2023/01/19 11:26:34;;;;;;;4.20;1.07;;;6.40;1.00;;;;;;5102511;28;20498;-86
2023/01/19 11:29:04;;;;;;;2.50;1.10;;;6.40;99.90;;;;;;5097375;28;20292;-86
2023/01/19 11:31:33;;;;;;;4.33;1.00;;;6.50;1.00;;;;;;5101708;28;20242;-85
2023/01/19 11:34:01;;;;;;;7.27;1.67;;;6.50;1.00;;;;;;5102596;28;20298;-85
2023/01/19 11:36:31;;;;;;;3.90;1.30;;;6.50;1.00;;;;;;5088855;28;20224;-85
2023/01/19 11:39:00;;;;;;;4.83;1.30;;;6.60;99.90;;;;;;5088484;28;20287;-86
2023/01/19 11:41:29;;;;;;;4.17;1.37;;;6.60;1.00;;;;;;5088342;28;20220;-86
2023/01/19 11:43:58;;;;;;;6.27;1.60;;;6.70;1.00;;;;;;5087679;28;20204;-84
2023/01/19 11:46:33;;;;;;;5.87;1.50;;;6.70;1.00;;;;;;5098625;28;20192;-80
2023/01/19 11:49:04;;;;;;;3.83;1.60;;;6.70;1.00;;;;;;5105987;28;20307;-85
2023/01/19 11:51:37;;;;;;;4.63;1.63;;;6.70;1.00;;;;;;5084079;28;20200;-86
2023/01/19 11:54:15;;;;;;;6.53;1.37;;;6.70;99.90;;;;;;5082547;28;20197;-82
2023/01/19 11:56:43;;;;;;;4.90;1.50;;;6.80;1.00;;;;;;5082610;28;20894;-78
2023/01/19 11:59:12;;;;;;;5.60;2.03;;;6.80;1.00;;;;;;5083225;28;20852;-77
2023/01/19 12:01:46;;;;;;;6.87;1.70;;;6.80;99.90;;;;;;5097772;28;20211;-79
2023/01/19 12:04:18;;;;;;;6.57;2.10;;;6.80;99.90;;;;;;5098956;28;20208;-78
2023/01/19 12:06:48;;;;;;;4.13;1.40;;;6.80;99.90;;;;;;5085144;28;20884;-77
2023/01/19 12:09:19;;;;;;;6.07;1.90;;;6.70;50.00;;;;;;5085042;28;20193;-77
2023/01/19 12:11:50;;;;;;;3.10;1.23;;;6.60;1.00;;;;;;5084831;28;20189;-79
2023/01/19 12:14:22;;;;;;;4.87;1.33;;;6.60;99.90;;;;;;5084295;28;20205;-78
2023/01/19 12:16:52;;;;;;;6.97;2.03;;;6.60;99.90;;;;;;5084587;28;20243;-78
2023/01/19 12:19:25;;;;;;;9.80;1.53;;;6.50;1.00;;;;;;5085369;28;20205;-78
2023/01/19 12:21:52;;;;;;;5.77;1.77;;;6.40;1.00;;;;;;5085539;28;20236;-79
2023/01/19 12:24:27;;;;;;;5.83;1.90;;;6.40;99.90;;;;;;5085970;28;20291;-79
2023/01/19 12:26:57;;;;;;;7.57;2.10;;;6.40;1.00;;;;;;5086466;28;20211;-80
2023/01/19 12:29:27;;;;;;;5.53;1.70;;;6.40;1.00;;;;;;5087556;28;20220;-80
2023/01/19 12:32:17;;;;;;;7.27;1.70;;;6.30;1.00;;;;;;5085978;28;20335;-79
2023/01/19 12:34:46;;;;;;;7.97;2.00;;;6.40;1.00;;;;;;5085426;28;20212;-80
2023/01/19 12:37:35;;;;;;;6.10;1.40;;;6.50;99.90;;;;;;5085527;28;20228;-81
2023/01/19 12:40:17;;;;;;;7.77;2.13;;;6.50;1.00;;;;;;5088123;28;20292;-78
2023/01/19 12:42:46;;;;;;;2.60;1.40;;;6.50;1.00;;;;;;5086575;28;20197;-85
2023/01/19 12:45:15;;;;;;;6.07;1.93;;;6.40;1.00;;;;;;5087546;28;20204;-86
2023/01/19 12:47:51;;;;;;;4.53;1.57;;;6.40;99.90;;;;;;5084340;28;20205;-85
2023/01/19 12:50:20;;;;;;;3.67;1.50;;;6.30;1.00;;;;;;5089498;28;20188;-81
2023/01/19 12:52:55;;;;;;;5.93;2.03;;;6.30;75.40;;;;;;5088963;28;20783;-86
2023/01/19 12:55:26;;;;;;;6.93;1.67;;;6.30;99.90;;;;;;5100366;28;20192;-85
2023/01/19 12:58:00;;;;;;;22.73;2.90;;;6.30;99.90;;;;;;5111471;28;20226;-88
2023/01/19 13:00:36;;;;;;;6.03;1.53;;;6.30;99.90;;;;;;5102049;28;20212;-81
2023/01/19 13:03:55;;;;;;;11.00;2.10;;;6.40;1.00;;;;;;5090847;28;20207;-87
2023/01/19 13:07:12;;;;;;;2.93;1.40;;;6.40;1.00;;;;;;4987707;28;20207;-83
2023/01/19 13:09:41;;;;;;;6.93;2.13;;;6.50;1.00;;;;;;5088821;28;20311;-80
2023/01/19 13:12:26;;;;;;;4.93;1.60;;;6.60;1.00;;;;;;5109385;28;20205;-86
2023/01/19 13:15:28;;;;;;;6.83;1.97;;;6.50;52.50;;;;;;5097173;28;20204;-84